Time;durP1;ratioP1;P1;durP2;ratioP2;P2;SDS_P1;SDS_P2;PMS_P1;PMS_P2;Temp;Humidity;BMP_temperature;BMP_pressure;BME280_temperature;BME280_humidity;BME280_pressure;Samples;Min_cycle;Max_cycle;Signal;HPM_P1;HPM_P2
2021/07/17 00:01:49;;;;;;;36.15;15.40;;;15.60;99.90;;;;;;5029031;28;20144;-46
2021/07/17 00:04:21;;;;;;;40.55;17.05;;;15.60;99.90;;;;;;5027847;28;20053;-46
2021/07/17 00:06:59;;;;;;;33.30;15.90;;;15.50;99.90;;;;;;5028398;28;20559;-47
2021/07/17 00:09:36;;;;;;;39.70;15.32;;;15.50;99.90;;;;;;5028438;28;20097;-47
2021/07/17 00:12:04;;;;;;;41.78;15.57;;;15.50;99.90;;;;;;5035766;28;20058;-49
2021/07/17 00:14:40;;;;;;;41.08;16.92;;;15.40;99.90;;;;;;5029247;28;20092;-48
2021/07/17 00:17:09;;;;;;;39.03;16.35;;;15.40;99.90;;;;;;5027996;28;20052;-48
2021/07/17 00:19:49;;;;;;;37.80;16.27;;;15.40;99.90;;;;;;5031321;28;20075;-44
2021/07/17 00:22:23;;;;;;;44.70;16.15;;;15.40;99.90;;;;;;5032101;28;20049;-46
2021/07/17 00:24:56;;;;;;;46.45;17.88;;;15.30;99.90;;;;;;5028208;28;20045;-46
2021/07/17 00:27:30;;;;;;;45.83;15.40;;;15.30;99.90;;;;;;5028063;28;20128;-51
2021/07/17 00:30:12;;;;;;;32.33;15.10;;;15.30;99.90;;;;;;5028329;28;20053;-51
2021/07/17 00:32:44;;;;;;;35.53;15.13;;;15.30;99.90;;;;;;5028183;28;20071;-47
2021/07/17 00:35:13;;;;;;;38.42;15.82;;;15.30;99.90;;;;;;5028044;28;20053;-50
2021/07/17 00:37:48;;;;;;;45.20;16.60;;;15.20;99.90;;;;;;5027907;28;20053;-46
2021/07/17 00:40:22;;;;;;;37.85;15.48;;;15.20;99.90;;;;;;5028536;28;20053;-48
2021/07/17 00:42:57;;;;;;;37.55;15.60;;;15.20;99.90;;;;;;5028219;28;20053;-48
2021/07/17 00:45:31;;;;;;;33.63;14.43;;;15.10;99.90;;;;;;5028434;28;20065;-48
2021/07/17 00:48:02;;;;;;;35.25;16.00;;;15.10;99.90;;;;;;5027832;28;20566;-46
2021/07/17 00:50:42;;;;;;;33.63;15.55;;;15.10;99.90;;;;;;5028277;28;20053;-46
2021/07/17 00:53:18;;;;;;;35.40;16.75;;;15.10;99.90;;;;;;5028315;28;20132;-47
2021/07/17 00:55:53;;;;;;;36.00;14.55;;;15.00;99.90;;;;;;5028172;28;20063;-47
2021/07/17 00:58:36;;;;;;;43.90;15.82;;;15.00;99.90;;;;;;5030132;28;20124;-45
2021/07/17 01:01:12;;;;;;;47.80;16.75;;;15.00;99.90;;;;;;5027611;28;20064;-47
2021/07/17 01:03:43;;;;;;;35.65;15.25;;;15.00;99.90;;;;;;5027823;28;20049;-46
2021/07/17 01:06:20;;;;;;;37.67;15.93;;;15.00;99.90;;;;;;5027664;28;20053;-46
2021/07/17 01:08:57;;;;;;;32.80;14.77;;;14.90;99.90;;;;;;5027357;28;20053;-45
2021/07/17 01:11:39;;;;;;;36.63;15.55;;;14.90;99.90;;;;;;5027501;28;20041;-50
2021/07/17 01:14:14;;;;;;;32.72;14.73;;;14.90;99.90;;;;;;5027394;28;20537;-47
2021/07/17 01:16:51;;;;;;;35.15;15.10;;;14.90;99.90;;;;;;5027659;28;20046;-48
2021/07/17 01:19:28;;;;;;;34.65;14.70;;;14.90;99.90;;;;;;5027768;28;20100;-50
2021/07/17 01:22:05;;;;;;;37.90;14.93;;;14.90;99.90;;;;;;5026204;28;20166;-49
2021/07/17 01:24:34;;;;;;;40.40;17.40;;;14.80;99.90;;;;;;5027727;28;20064;-48
2021/07/17 01:27:11;;;;;;;37.33;15.93;;;14.80;99.90;;;;;;5040467;28;20053;-44
2021/07/17 01:29:48;;;;;;;29.67;14.48;;;14.80;99.90;;;;;;5047583;28;20045;-44
2021/07/17 01:32:21;;;;;;;35.78;14.70;;;14.70;99.90;;;;;;5043272;28;20060;-46
2021/07/17 01:34:59;;;;;;;41.70;16.05;;;14.70;99.90;;;;;;5025849;28;20555;-46
2021/07/17 01:37:30;;;;;;;30.10;13.85;;;14.70;99.90;;;;;;5030275;28;20478;-47
2021/07/17 01:40:11;;;;;;;31.65;14.88;;;14.70;99.90;;;;;;5031855;28;20148;-47
2021/07/17 01:42:45;;;;;;;37.78;15.57;;;14.70;99.90;;;;;;5031486;28;20418;-47
2021/07/17 01:45:38;;;;;;;35.15;16.23;;;14.70;99.90;;;;;;5031559;28;20049;-45
2021/07/17 01:48:15;;;;;;;43.55;16.33;;;14.70;99.90;;;;;;5008814;28;20049;-46
2021/07/17 01:50:52;;;;;;;45.63;16.95;;;14.60;99.90;;;;;;5008738;28;20054;-48
2021/07/17 01:53:26;;;;;;;41.30;16.50;;;14.60;99.90;;;;;;5008353;28;20824;-48
2021/07/17 01:56:06;;;;;;;34.90;15.57;;;14.60;99.90;;;;;;5008579;28;20072;-48
2021/07/17 01:58:36;;;;;;;47.63;17.27;;;14.60;99.90;;;;;;5008370;28;20077;-46
2021/07/17 02:01:06;;;;;;;38.00;15.32;;;14.60;99.90;;;;;;5009836;28;20045;-46
2021/07/17 02:03:46;;;;;;;35.80;15.90;;;14.60;99.90;;;;;;5010986;28;20647;-48
2021/07/17 02:06:24;;;;;;;42.00;15.13;;;14.60;99.90;;;;;;5027400;28;20061;-47
2021/07/17 02:09:00;;;;;;;39.90;15.82;;;14.60;99.90;;;;;;5027774;28;20056;-45
2021/07/17 02:11:32;;;;;;;35.35;14.75;;;14.60;99.90;;;;;;5027952;28;20506;-45
2021/07/17 02:14:02;;;;;;;34.40;14.63;;;14.50;99.90;;;;;;5028076;28;20139;-46
2021/07/17 02:16:41;;;;;;;38.75;16.85;;;14.50;99.90;;;;;;5027249;28;20200;-47
2021/07/17 02:19:21;;;;;;;29.48;13.95;;;14.50;99.90;;;;;;5027460;28;20501;-49
2021/07/17 02:21:58;;;;;;;32.65;14.98;;;14.50;99.90;;;;;;5027670;28;20053;-46
2021/07/17 02:24:35;;;;;;;38.75;15.95;;;14.50;99.90;;;;;;5022908;28;20053;-45
2021/07/17 02:27:12;;;;;;;31.17;15.60;;;14.40;99.90;;;;;;5039568;28;20052;-45
2021/07/17 02:29:48;;;;;;;29.75;15.25;;;14.40;99.90;;;;;;5050747;28;20076;-46
2021/07/17 02:32:27;;;;;;;30.73;15.18;;;14.40;99.90;;;;;;5053870;28;20056;-47
2021/07/17 02:34:56;;;;;;;36.85;15.75;;;14.40;99.90;;;;;;5050667;28;20497;-46
2021/07/17 02:37:32;;;;;;;39.90;16.25;;;14.40;99.90;;;;;;5035299;28;20049;-46
2021/07/17 02:40:12;;;;;;;35.05;15.20;;;14.40;99.90;;;;;;5029794;28;20075;-46
2021/07/17 02:42:41;;;;;;;36.38;16.02;;;14.30;99.90;;;;;;5030325;28;20483;-45
2021/07/17 02:45:23;;;;;;;39.33;15.75;;;14.40;99.90;;;;;;5029935;28;20142;-46
2021/07/17 02:47:55;;;;;;;33.03;16.00;;;14.40;99.90;;;;;;5029318;28;20064;-46
2021/07/17 02:50:36;;;;;;;29.85;13.27;;;14.40;99.90;;;;;;5029768;28;20076;-47
2021/07/17 02:53:12;;;;;;;25.65;13.32;;;14.40;99.90;;;;;;5030322;28;20065;-46
2021/07/17 02:55:45;;;;;;;44.13;17.90;;;14.40;99.90;;;;;;5030250;28;20187;-47
2021/07/17 02:58:29;;;;;;;35.88;15.45;;;14.40;99.90;;;;;;5029392;28;20060;-48
2021/07/17 03:01:04;;;;;;;37.63;15.10;;;14.40;99.90;;;;;;5029701;28;20050;-47
2021/07/17 03:03:40;;;;;;;35.65;14.38;;;14.40;99.90;;;;;;5030043;28;20049;-48
2021/07/17 03:06:14;;;;;;;28.02;12.98;;;14.40;99.90;;;;;;5029606;28;20084;-48
2021/07/17 03:08:53;;;;;;;27.55;14.35;;;14.30;99.90;;;;;;5028645;28;20068;-50
2021/07/17 03:11:32;;;;;;;40.42;15.73;;;14.30;99.90;;;;;;5029326;28;20517;-48
2021/07/17 03:14:13;;;;;;;32.40;15.52;;;14.40;99.90;;;;;;5029487;28;20111;-48
2021/07/17 03:16:46;;;;;;;39.53;15.63;;;14.30;99.90;;;;;;5030034;28;20053;-49
2021/07/17 03:19:23;;;;;;;;;;;14.30;99.90;;;;;;5028993;28;20053;-47
2021/07/17 03:21:56;;;;;;;29.88;14.35;;;14.30;99.90;;;;;;5029385;28;19925;-47
2021/07/17 03:24:31;;;;;;;29.67;13.32;;;14.30;99.90;;;;;;5029590;28;20053;-46
2021/07/17 03:27:08;;;;;;;34.30;16.13;;;14.20;99.90;;;;;;5030119;28;20053;-46
2021/07/17 03:29:45;;;;;;;34.55;14.85;;;14.20;99.90;;;;;;5022328;28;20076;-47
2021/07/17 03:32:26;;;;;;;30.23;14.55;;;14.30;99.90;;;;;;5029407;28;20069;-48
2021/07/17 03:34:58;;;;;;;36.03;14.88;;;14.20;99.90;;;;;;5029716;28;20049;-50
2021/07/17 03:37:33;;;;;;;33.85;14.82;;;14.20;99.90;;;;;;5029379;28;20508;-47
2021/07/17 03:40:14;;;;;;;37.03;15.57;;;14.20;99.90;;;;;;5029175;28;20056;-48
2021/07/17 03:42:48;;;;;;;36.80;14.68;;;14.20;99.90;;;;;;5029497;28;20057;-49
2021/07/17 03:45:24;;;;;;;33.72;14.45;;;14.20;99.90;;;;;;5029247;28;20797;-46
2021/07/17 03:48:01;;;;;;;36.55;14.68;;;14.20;99.90;;;;;;5029693;28;20049;-50
2021/07/17 03:50:34;;;;;;;34.50;13.88;;;14.20;99.90;;;;;;5029579;28;20073;-46
2021/07/17 03:53:07;;;;;;;35.90;15.07;;;14.20;99.90;;;;;;5028697;28;20057;-45
2021/07/17 03:55:48;;;;;;;33.38;13.70;;;14.20;99.90;;;;;;5032083;28;20056;-48
2021/07/17 03:58:22;;;;;;;37.60;14.40;;;14.30;99.90;;;;;;5028685;28;20132;-47
2021/07/17 04:00:51;;;;;;;33.15;14.38;;;14.30;99.90;;;;;;5028549;28;20132;-46
2021/07/17 04:03:24;;;;;;;32.85;14.13;;;14.30;99.90;;;;;;5028814;28;20112;-47
2021/07/17 04:05:51;;;;;;;34.03;14.20;;;14.30;99.90;;;;;;5028433;28;20144;-52
2021/07/17 04:08:29;;;;;;;28.58;13.60;;;14.40;99.90;;;;;;5028377;28;20068;-55
2021/07/17 04:11:09;;;;;;;38.80;13.75;;;14.50;99.90;;;;;;5031654;28;20049;-56
2021/07/17 04:13:40;;;;;;;34.75;14.05;;;14.60;99.90;;;;;;5028479;28;20053;-55
2021/07/17 04:16:12;;;;;;;33.17;13.65;;;14.60;99.90;;;;;;5028653;28;20452;-56
2021/07/17 04:18:41;;;;;;;39.03;14.65;;;14.70;99.90;;;;;;5033965;28;20490;-57
2021/07/17 04:21:12;;;;;;;31.88;13.23;;;14.70;99.90;;;;;;5028947;28;20391;-56
2021/07/17 04:23:44;;;;;;;37.13;13.80;;;14.80;99.90;;;;;;5030335;28;20394;-54
2021/07/17 04:26:18;;;;;;;37.20;14.60;;;14.80;99.90;;;;;;5022998;28;20565;-55
2021/07/17 04:28:50;;;;;;;33.65;14.02;;;14.90;99.90;;;;;;5028190;28;20076;-54
2021/07/17 04:31:19;;;;;;;32.15;12.57;;;14.90;99.90;;;;;;5027847;28;20160;-54
2021/07/17 04:33:53;;;;;;;34.72;12.70;;;14.90;99.90;;;;;;5027644;28;20053;-56
2021/07/17 04:36:24;;;;;;;31.13;12.30;;;15.00;99.90;;;;;;5030086;28;20057;-57
2021/07/17 04:38:51;;;;;;;31.10;13.23;;;15.10;99.90;;;;;;5007995;28;20060;-56
2021/07/17 04:41:24;;;;;;;30.40;11.13;;;15.20;99.90;;;;;;5007979;28;20145;-55
2021/07/17 04:43:55;;;;;;;27.58;11.57;;;15.30;99.90;;;;;;5011819;28;20044;-56
2021/07/17 04:46:27;;;;;;;41.00;12.48;;;15.30;99.90;;;;;;5027430;28;20582;-56
2021/07/17 04:49:02;;;;;;;28.20;11.60;;;15.40;99.90;;;;;;5033855;28;20046;-54
2021/07/17 04:51:33;;;;;;;26.08;11.43;;;15.50;99.90;;;;;;5020431;28;20102;-55
2021/07/17 04:54:09;;;;;;;20.67;9.98;;;15.60;99.90;;;;;;5018640;28;20140;-55
2021/07/17 04:56:38;;;;;;;26.30;10.55;;;15.70;99.90;;;;;;5027194;28;20056;-55
2021/07/17 04:59:07;;;;;;;37.15;12.63;;;15.80;99.90;;;;;;5027229;28;20045;-57
2021/07/17 05:01:41;;;;;;;28.10;10.20;;;15.90;99.90;;;;;;5027362;28;20144;-57
2021/07/17 05:04:12;;;;;;;26.02;10.27;;;16.00;99.90;;;;;;5026816;28;20061;-55
2021/07/17 05:06:42;;;;;;;24.35;11.48;;;16.10;99.90;;;;;;5026805;28;20048;-57
2021/07/17 05:09:08;;;;;;;35.15;11.43;;;16.20;99.90;;;;;;5027503;28;20041;-56
2021/07/17 05:11:39;;;;;;;26.33;9.20;;;16.40;99.90;;;;;;5026786;28;20140;-56
2021/07/17 05:14:10;;;;;;;22.85;8.95;;;16.50;99.90;;;;;;5027273;28;20049;-57
2021/07/17 05:16:44;;;;;;;29.75;9.77;;;16.70;99.90;;;;;;5027695;28;20068;-56
2021/07/17 05:19:21;;;;;;;22.92;8.70;;;16.90;99.90;;;;;;5027623;28;20660;-56
2021/07/17 05:21:55;;;;;;;27.05;8.60;;;17.20;99.90;;;;;;5027342;28;20053;-55
2021/07/17 05:24:30;;;;;;;19.30;7.80;;;17.40;99.90;;;;;;5027090;28;20052;-54
2021/07/17 05:26:57;;;;;;;19.65;7.72;;;17.50;99.90;;;;;;5027147;28;20057;-54
2021/07/17 05:29:28;;;;;;;;;;;17.70;99.90;;;;;;5033686;28;20041;-56
2021/07/17 05:32:04;;;;;;;22.90;7.10;;;17.70;99.90;;;;;;5027066;28;19931;-55
2021/07/17 05:34:40;;;;;;;26.10;8.38;;;17.90;99.90;;;;;;5041546;28;20204;-54
2021/07/17 05:37:17;;;;;;;19.83;7.90;;;17.90;99.90;;;;;;5019217;28;20088;-54
2021/07/17 05:39:46;;;;;;;18.13;7.38;;;18.00;99.90;;;;;;5026259;28;20041;-54
2021/07/17 05:42:15;;;;;;;19.98;7.53;;;18.10;99.90;;;;;;5022933;28;20049;-55
2021/07/17 05:44:49;;;;;;;20.73;7.22;;;18.20;99.90;;;;;;5025352;28;20171;-55
2021/07/17 05:47:25;;;;;;;17.02;6.88;;;18.40;99.90;;;;;;5025852;28;20056;-55
2021/07/17 05:49:55;;;;;;;18.02;6.63;;;18.60;99.90;;;;;;5026266;28;20275;-53
2021/07/17 05:52:27;;;;;;;20.92;6.70;;;18.80;99.90;;;;;;5026294;28;20164;-56
2021/07/17 05:54:56;;;;;;;16.25;5.75;;;18.90;99.90;;;;;;5029848;28;20054;-53
2021/07/17 05:57:31;;;;;;;18.10;6.57;;;19.20;99.90;;;;;;5026937;28;20084;-55
2021/07/17 06:00:04;;;;;;;18.45;6.38;;;19.20;99.90;;;;;;5026496;28;20041;-55
2021/07/17 06:02:47;;;;;;;18.60;5.95;;;19.20;99.90;;;;;;5025993;28;20045;-55
2021/07/17 06:05:16;;;;;;;20.98;11.73;;;19.30;99.90;;;;;;5025718;28;20164;-56
2021/07/17 06:07:48;;;;;;;51.40;41.60;;;19.50;99.90;;;;;;5025375;28;20056;-54
2021/07/17 06:10:19;;;;;;;25.30;15.60;;;19.50;99.90;;;;;;5026631;28;20084;-53
2021/07/17 06:12:53;;;;;;;22.13;10.20;;;19.60;99.90;;;;;;5040794;28;20461;-53
2021/07/17 06:15:27;;;;;;;15.52;5.85;;;19.70;99.90;;;;;;5015472;28;20082;-55
2021/07/17 06:18:01;;;;;;;25.08;12.35;;;19.70;99.90;;;;;;5027451;28;20203;-55
2021/07/17 06:20:37;;;;;;;26.15;15.65;;;19.70;99.90;;;;;;5025325;28;20045;-55
2021/07/17 06:23:14;;;;;;;18.02;10.00;;;19.60;99.90;;;;;;5028977;28;20204;-54
2021/07/17 06:25:46;;;;;;;12.30;5.50;;;19.70;99.90;;;;;;5030093;28;20064;-53
2021/07/17 06:28:15;;;;;;;20.73;8.55;;;19.80;99.90;;;;;;5022690;28;20046;-52
2021/07/17 06:30:44;;;;;;;16.17;6.70;;;20.10;99.90;;;;;;5029728;28;20073;-53
2021/07/17 06:33:18;;;;;;;25.92;17.77;;;20.10;99.90;;;;;;5028822;28;20061;-54
2021/07/17 06:35:55;;;;;;;22.17;14.85;;;20.40;99.90;;;;;;5028826;28;20075;-51
2021/07/17 06:38:27;;;;;;;14.00;6.40;;;20.80;99.90;;;;;;5028860;28;20111;-53
2021/07/17 06:40:54;;;;;;;22.35;11.23;;;20.90;99.90;;;;;;5032508;28;20048;-50
2021/07/17 06:43:29;;;;;;;35.03;23.63;;;21.10;99.90;;;;;;5029998;28;20060;-53
2021/07/17 06:46:03;;;;;;;16.13;7.63;;;21.30;99.90;;;;;;5029784;28;20057;-52
2021/07/17 06:48:33;;;;;;;12.88;5.25;;;21.60;99.90;;;;;;5030326;28;20109;-51
2021/07/17 06:51:08;;;;;;;12.80;5.78;;;21.70;99.90;;;;;;5030505;28;20132;-52
2021/07/17 06:53:38;;;;;;;26.17;18.52;;;21.90;99.90;;;;;;5032087;28;20056;-52
2021/07/17 06:56:10;;;;;;;30.95;22.25;;;22.10;99.90;;;;;;5029036;28;20053;-49
2021/07/17 06:58:41;;;;;;;9.32;3.83;;;22.30;99.90;;;;;;5019136;28;20060;-50
2021/07/17 07:01:15;;;;;;;18.75;11.10;;;22.50;99.90;;;;;;5029824;28;20128;-53
2021/07/17 07:03:47;;;;;;;12.32;4.22;;;22.70;99.90;;;;;;5036456;28;20045;-48
2021/07/17 07:06:18;;;;;;;12.65;5.82;;;22.90;99.90;;;;;;5028192;28;20056;-53
2021/07/17 07:08:48;;;;;;;10.52;3.80;;;23.10;99.90;;;;;;5029941;28;20065;-52
2021/07/17 07:11:20;;;;;;;17.48;11.88;;;23.10;99.90;;;;;;5019783;28;20490;-50
2021/07/17 07:13:53;;;;;;;14.45;10.43;;;23.40;99.90;;;;;;5027797;28;20399;-53
2021/07/17 07:16:21;;;;;;;23.95;16.70;;;23.40;99.90;;;;;;5029396;28;20498;-52
2021/07/17 07:18:50;;;;;;;15.00;6.47;;;23.60;99.90;;;;;;5028260;28;20175;-51
2021/07/17 07:21:17;;;;;;;10.77;5.28;;;23.60;99.90;;;;;;5028339;28;20406;-53
2021/07/17 07:23:54;;;;;;;11.05;4.53;;;23.90;99.90;;;;;;5023155;28;20513;-51
2021/07/17 07:26:21;;;;;;;18.70;13.95;;;23.90;99.90;;;;;;5027005;28;20145;-50
2021/07/17 07:28:58;;;;;;;15.02;11.23;;;24.20;99.90;;;;;;5017396;28;20049;-52
2021/07/17 07:31:28;;;;;;;9.98;3.28;;;24.30;99.90;;;;;;5028494;28;20045;-53
2021/07/17 07:33:58;;;;;;;9.48;3.15;;;24.10;99.90;;;;;;5027759;28;20069;-49
2021/07/17 07:36:30;;;;;;;25.60;19.63;;;24.10;99.90;;;;;;5028959;28;20123;-52
2021/07/17 07:39:01;;;;;;;9.10;3.15;;;24.00;96.30;;;;;;5028447;28;20453;-50
2021/07/17 07:41:30;;;;;;;9.30;3.70;;;24.30;96.30;;;;;;5033184;28;20042;-53
2021/07/17 07:44:06;;;;;;;15.48;9.55;;;24.40;98.40;;;;;;5028361;28;20049;-51
2021/07/17 07:46:40;;;;;;;6.97;4.13;;;24.50;97.90;;;;;;5033981;28;20103;-49
2021/07/17 07:49:09;;;;;;;13.18;9.10;;;24.60;95.60;;;;;;5027387;28;20049;-48
2021/07/17 07:51:47;;;;;;;6.40;2.17;;;24.70;95.30;;;;;;5027950;28;20108;-50
2021/07/17 07:54:20;;;;;;;9.88;4.30;;;24.90;93.10;;;;;;5032994;28;20041;-53
2021/07/17 07:56:47;;;;;;;10.20;5.50;;;25.10;93.80;;;;;;5027407;28;20049;-51
2021/07/17 07:59:24;;;;;;;8.15;3.22;;;25.20;93.60;;;;;;5011787;28;20046;-52
2021/07/17 08:01:51;;;;;;;12.57;9.48;;;25.30;91.30;;;;;;5044585;28;20041;-51
2021/07/17 08:04:24;;;;;;;;;;;25.20;90.40;;;;;;5028657;28;20053;-50
2021/07/17 08:06:52;;;;;;;16.90;11.13;;;25.30;85.70;;;;;;5031047;28;19928;-51
2021/07/17 08:09:19;;;;;;;24.42;18.38;;;25.60;88.80;;;;;;5032242;28;20053;-49
2021/07/17 08:11:48;;;;;;;19.00;13.90;;;25.70;85.20;;;;;;5029441;28;20049;-49
2021/07/17 08:14:14;;;;;;;30.83;27.63;;;25.80;82.60;;;;;;5027900;28;20049;-50
2021/07/17 08:16:41;;;;;;;14.70;11.00;;;26.00;81.50;;;;;;5028387;28;20128;-50
2021/07/17 08:19:07;;;;;;;12.38;6.63;;;26.00;79.70;;;;;;5027602;28;20053;-49
2021/07/17 08:21:36;;;;;;;5.43;2.00;;;25.90;78.30;;;;;;5027421;28;20041;-51
2021/07/17 08:24:08;;;;;;;9.70;6.07;;;26.20;76.20;;;;;;5027008;28;20053;-51
2021/07/17 08:26:37;;;;;;;8.82;3.28;;;26.20;78.80;;;;;;5025980;28;20052;-52
2021/07/17 08:29:07;;;;;;;7.65;2.58;;;26.30;79.80;;;;;;5027127;28;20060;-57
2021/07/17 08:31:34;;;;;;;7.13;1.88;;;26.30;76.80;;;;;;5026292;28;20053;-53
2021/07/17 08:34:04;;;;;;;7.88;3.80;;;26.40;75.40;;;;;;5026057;28;20573;-51
2021/07/17 08:36:30;;;;;;;10.48;5.80;;;26.60;75.60;;;;;;5031813;28;20128;-52
2021/07/17 08:39:02;;;;;;;11.18;8.13;;;26.60;74.70;;;;;;5026433;28;20053;-54
2021/07/17 08:41:34;;;;;;;28.90;25.85;;;26.70;71.60;;;;;;5027581;28;20111;-52
2021/07/17 08:44:03;;;;;;;7.30;3.65;;;26.60;69.90;;;;;;5025788;28;20563;-54
2021/07/17 08:46:38;;;;;;;10.03;3.97;;;26.60;69.90;;;;;;5026206;28;20054;-52
2021/07/17 08:49:10;;;;;;;8.02;2.35;;;26.60;68.90;;;;;;5021392;28;20042;-54
2021/07/17 08:51:39;;;;;;;7.38;2.95;;;26.80;71.30;;;;;;5032376;28;20049;-52
2021/07/17 08:54:06;;;;;;;6.53;2.45;;;27.00;70.50;;;;;;5029066;28;20052;-53
2021/07/17 08:56:38;;;;;;;9.23;3.35;;;26.80;69.50;;;;;;5027400;28;20081;-55
2021/07/17 08:59:09;;;;;;;8.23;5.25;;;26.90;68.70;;;;;;5028581;28;20056;-55
2021/07/17 09:01:38;;;;;;;7.95;3.42;;;26.80;69.10;;;;;;5018173;28;20555;-56
2021/07/17 09:04:08;;;;;;;6.20;3.70;;;26.90;71.20;;;;;;5024306;28;20768;-54
2021/07/17 09:06:39;;;;;;;7.05;2.00;;;26.90;68.70;;;;;;5031118;28;20041;-57
2021/07/17 09:09:08;;;;;;;9.82;2.80;;;27.10;67.50;;;;;;5026475;28;20096;-56
2021/07/17 09:11:40;;;;;;;22.23;19.90;;;27.40;67.60;;;;;;5025245;28;20100;-56
2021/07/17 09:14:35;;;;;;;8.02;3.58;;;27.60;67.00;;;;;;5027051;28;20056;-55
2021/07/17 09:17:05;;;;;;;4.95;1.48;;;27.40;64.10;;;;;;5024123;28;20521;-54
2021/07/17 09:19:51;;;;;;;9.85;6.88;;;27.10;64.60;;;;;;5030241;28;20140;-53
2021/07/17 09:22:36;;;;;;;5.03;2.55;;;27.30;64.90;;;;;;5018658;28;20056;-56
2021/07/17 09:25:20;;;;;;;9.68;5.28;;;27.00;65.00;;;;;;5024937;28;20856;-56
2021/07/17 09:27:49;;;;;;;10.25;6.90;;;27.40;64.20;;;;;;5021041;28;20474;-56
2021/07/17 09:30:31;;;;;;;8.02;5.28;;;27.20;64.70;;;;;;5023699;28;20049;-54
2021/07/17 09:33:07;;;;;;;9.55;3.53;;;27.40;65.10;;;;;;5026154;28;20057;-58
2021/07/17 09:35:46;;;;;;;4.63;1.60;;;27.50;64.50;;;;;;5028208;28;20512;-57
2021/07/17 09:38:17;;;;;;;14.25;12.43;;;27.70;64.90;;;;;;5025498;28;20096;-57
2021/07/17 09:41:02;;;;;;;5.63;3.47;;;27.70;63.00;;;;;;5032078;28;20068;-57
2021/07/17 09:43:35;;;;;;;7.90;6.20;;;27.80;64.00;;;;;;5027500;28;20071;-57
2021/07/17 09:46:29;;;;;;;5.63;2.13;;;28.00;63.80;;;;;;5039313;28;20049;-57
2021/07/17 09:49:01;;;;;;;22.02;6.93;;;28.00;62.40;;;;;;5027302;28;20053;-57
2021/07/17 09:51:34;;;;;;;6.45;3.65;;;28.10;65.10;;;;;;5024807;28;20520;-57
2021/07/17 09:54:06;;;;;;;7.15;4.43;;;28.40;61.40;;;;;;5028332;28;20132;-57
2021/07/17 09:56:37;;;;;;;5.90;2.53;;;28.30;61.30;;;;;;5026169;28;20103;-57
2021/07/17 09:59:09;;;;;;;4.63;1.42;;;28.10;61.00;;;;;;5023783;28;20057;-57
2021/07/17 10:01:42;;;;;;;12.40;5.03;;;28.20;61.40;;;;;;5035265;28;20037;-57
2021/07/17 10:04:13;;;;;;;6.85;1.80;;;28.50;62.20;;;;;;5032652;28;20041;-58
2021/07/17 10:06:45;;;;;;;5.97;1.60;;;28.60;60.00;;;;;;5028359;28;20054;-58
2021/07/17 10:09:17;;;;;;;5.03;1.88;;;28.70;61.40;;;;;;5030203;28;20049;-57
2021/07/17 10:11:54;;;;;;;5.68;1.60;;;29.10;61.50;;;;;;5029704;28;20053;-58
2021/07/17 10:14:26;;;;;;;6.70;1.83;;;29.10;59.10;;;;;;5033120;28;20216;-58
2021/07/17 10:17:04;;;;;;;3.08;1.35;;;29.10;58.00;;;;;;5029933;28;20064;-58
2021/07/17 10:19:35;;;;;;;4.25;1.50;;;29.50;58.60;;;;;;5031668;28;20076;-58
2021/07/17 10:22:11;;;;;;;4.28;1.55;;;29.30;55.90;;;;;;5027354;28;20130;-57
2021/07/17 10:24:40;;;;;;;5.10;1.40;;;29.40;56.60;;;;;;5030193;28;20212;-61
2021/07/17 10:27:07;;;;;;;5.70;1.70;;;29.20;56.50;;;;;;5030316;28;20103;-58
2021/07/17 10:29:37;;;;;;;5.95;1.75;;;29.30;56.90;;;;;;5034446;28;20041;-58
2021/07/17 10:32:15;;;;;;;7.40;1.08;;;29.20;55.40;;;;;;5034571;28;20124;-58
2021/07/17 10:34:46;;;;;;;5.70;2.00;;;29.30;54.90;;;;;;5011103;28;20050;-58
2021/07/17 10:37:22;;;;;;;4.47;1.83;;;29.10;55.20;;;;;;5013700;28;20053;-58
2021/07/17 10:40:11;;;;;;;5.82;2.03;;;29.40;55.20;;;;;;5031791;28;20068;-58
2021/07/17 10:42:44;;;;;;;4.50;1.10;;;29.70;56.20;;;;;;5031602;28;20452;-58
2021/07/17 10:45:31;;;;;;;4.13;1.45;;;29.20;55.50;;;;;;5029591;28;20056;-58
2021/07/17 10:48:00;;;;;;;23.23;20.92;;;29.50;55.80;;;;;;5029419;28;20050;-60
2021/07/17 10:50:33;;;;;;;15.63;14.10;;;29.50;54.50;;;;;;5029492;28;20053;-59
2021/07/17 10:53:02;;;;;;;16.08;14.05;;;29.10;53.80;;;;;;5029751;28;20053;-59
2021/07/17 10:55:32;;;;;;;16.90;15.25;;;29.70;53.90;;;;;;5028978;28;20085;-49
2021/07/17 10:58:19;;;;;;;6.13;2.58;;;29.80;53.10;;;;;;5029686;28;20061;-50
2021/07/17 11:00:49;;;;;;;;;;;29.80;52.90;;;;;;5029796;28;20049;-50
2021/07/17 11:03:18;;;;;;;3.78;2.30;;;29.80;52.10;;;;;;5029351;28;19929;-56
2021/07/17 11:05:44;;;;;;;7.70;5.70;;;29.50;51.80;;;;;;5028297;28;20046;-58
2021/07/17 11:08:33;;;;;;;5.13;1.50;;;29.60;53.00;;;;;;5023460;28;20045;-56
2021/07/17 11:11:02;;;;;;;5.30;2.30;;;30.20;53.50;;;;;;5028916;28;20598;-57
2021/07/17 11:13:38;;;;;;;6.32;4.13;;;30.20;52.10;;;;;;5046845;28;20041;-56
2021/07/17 11:16:07;;;;;;;7.35;4.07;;;30.40;51.60;;;;;;5027984;28;20057;-57
2021/07/17 11:18:36;;;;;;;3.77;1.70;;;30.40;51.90;;;;;;5029317;28;20060;-56
2021/07/17 11:21:05;;;;;;;6.50;3.55;;;30.30;50.80;;;;;;5029139;28;20046;-56
2021/07/17 11:23:37;;;;;;;4.95;2.22;;;30.10;48.30;;;;;;5029590;28;20138;-57
2021/07/17 11:26:19;;;;;;;6.88;3.25;;;30.20;49.80;;;;;;5030362;28;20045;-57
2021/07/17 11:29:02;;;;;;;5.68;2.75;;;30.20;50.50;;;;;;5029182;28;20052;-57
2021/07/17 11:31:36;;;;;;;6.97;2.83;;;30.40;51.70;;;;;;5029583;28;20104;-57
2021/07/17 11:34:19;;;;;;;4.63;2.22;;;30.60;50.10;;;;;;5028536;28;20049;-57
2021/07/17 11:36:55;;;;;;;5.85;2.97;;;30.40;48.50;;;;;;5028756;28;20556;-57
2021/07/17 11:39:27;;;;;;;3.15;1.70;;;30.40;48.20;;;;;;5029061;28;20175;-57
2021/07/17 11:41:58;;;;;;;2.97;1.23;;;30.30;47.40;;;;;;5029261;28;20045;-57
2021/07/17 11:44:28;;;;;;;3.95;2.17;;;30.40;47.90;;;;;;5027465;28;20045;-57
2021/07/17 11:46:59;;;;;;;6.32;2.70;;;30.20;46.30;;;;;;5031410;28;20069;-58
2021/07/17 11:49:36;;;;;;;4.65;1.48;;;30.50;48.20;;;;;;5029034;28;20129;-57
2021/07/17 11:52:33;;;;;;;5.55;1.85;;;30.40;48.10;;;;;;5033884;28;20058;-57
2021/07/17 11:55:11;;;;;;;5.30;1.33;;;30.50;47.60;;;;;;5027933;28;20448;-57
2021/07/17 11:57:39;;;;;;;3.60;1.08;;;30.10;46.50;;;;;;5035531;28;20820;-58
2021/07/17 12:00:20;;;;;;;4.13;2.28;;;30.40;48.70;;;;;;5028094;28;20065;-58
2021/07/17 12:02:56;;;;;;;3.97;1.77;;;30.40;48.50;;;;;;5028793;28;20042;-58
2021/07/17 12:05:23;;;;;;;3.85;1.42;;;30.80;46.60;;;;;;5027662;28;20452;-58
2021/07/17 12:07:50;;;;;;;2.88;1.30;;;30.80;47.10;;;;;;5028124;28;20080;-57
2021/07/17 12:10:22;;;;;;;3.10;1.15;;;31.00;47.40;;;;;;5028390;28;20057;-57
2021/07/17 12:12:51;;;;;;;2.03;1.05;;;31.10;47.80;;;;;;5028551;28;20045;-58
2021/07/17 12:15:23;;;;;;;2.88;1.15;;;31.30;47.90;;;;;;5027319;28;20144;-58
2021/07/17 12:17:58;;;;;;;5.72;2.80;;;31.10;47.60;;;;;;5028386;28;20056;-52
2021/07/17 12:20:33;;;;;;;4.88;3.45;;;30.80;48.60;;;;;;5028259;28;20055;-45
2021/07/17 12:23:32;;;;;;;38.25;34.88;;;31.00;48.60;;;;;;5028045;28;20057;-51
2021/07/17 12:26:08;;;;;;;8.23;7.30;;;31.10;48.90;;;;;;5004862;28;20072;-53
2021/07/17 12:28:44;;;;;;;9.23;8.32;;;31.30;47.50;;;;;;5005237;28;20096;-57
2021/07/17 12:31:13;;;;;;;6.00;2.88;;;30.80;45.90;;;;;;4988805;28;20053;-52
2021/07/17 12:33:43;;;;;;;2.58;1.58;;;30.70;48.20;;;;;;5004585;28;20597;-59
2021/07/17 12:36:21;;;;;;;9.80;8.80;;;30.90;48.70;;;;;;5004384;28;20060;-57
2021/07/17 12:39:02;;;;;;;4.07;1.98;;;31.10;49.00;;;;;;5004333;28;20045;-60
2021/07/17 12:41:31;;;;;;;4.82;3.00;;;30.90;49.50;;;;;;5001920;28;20053;-54
2021/07/17 12:44:16;;;;;;;4.43;2.25;;;30.80;48.30;;;;;;4964585;28;20633;-54
2021/07/17 12:46:45;;;;;;;3.78;2.25;;;30.60;48.80;;;;;;5007157;28;20095;-54
2021/07/17 12:49:16;;;;;;;5.28;1.92;;;30.40;48.60;;;;;;5004859;28;20054;-56
2021/07/17 12:51:50;;;;;;;4.03;2.17;;;30.70;50.10;;;;;;5004380;28;20045;-54
2021/07/17 12:54:17;;;;;;;4.07;1.70;;;30.50;49.70;;;;;;4997478;28;20088;-56
2021/07/17 12:56:47;;;;;;;6.00;3.35;;;30.50;51.50;;;;;;5026487;28;20502;-55
2021/07/17 12:59:19;;;;;;;3.45;1.30;;;30.70;51.40;;;;;;5032434;28;20045;-56
2021/07/17 13:01:53;;;;;;;4.38;1.95;;;30.50;50.50;;;;;;5027661;28;20053;-50
2021/07/17 13:04:24;;;;;;;5.40;1.75;;;30.60;49.30;;;;;;5028357;28;20053;-56
2021/07/17 13:06:59;;;;;;;3.70;1.67;;;30.50;49.00;;;;;;5027664;28;20052;-55
2021/07/17 13:09:30;;;;;;;3.50;1.20;;;30.90;49.50;;;;;;5027286;28;20038;-56